Airfield :
LOGIN :

Register | Disclaimer

   EN    FR    IT 

 










Legend :    VFR   Marginal VFR   IFR   Intensive IFR   Very Intensive IFR
Visi :
Ceiling :
>= 8 km
>= 3000ft
5 to 8 km
1000 to 3000 ft
1500m to 5 km
500 to 1000 ft
800 to 1500m
200 to 500 ft
< 800m
< 200 ft
Symbols :   Thunderstorms  Fog  Heavy snow  Heavy precipitations  Wind > 20 kt
SIGMETs :     Misc.  Thunderstorms  Icing  Turbulence  Mountain Waves  Volcanic Ashes







- Airport Elevation : 55 ft
- IATA code : DSA
- Download approach charts


EGCN - Robin Hood Doncaster Sheffield

CURRENT METAR :
  • 181150Z 29009KT 9999 FEW035 BKN048 09/06 Q1020

EXPIRED METARs :
  • 181120Z 29012KT 9999 SCT030 BKN036 09/06 Q1020
  • 181050Z 28011KT 9999 -SHRA SCT026 SCT032 BKN038 10/06 Q1020
  • 181020Z 29011KT 9999 FEW028 BKN033 10/05 Q1021
  • 180950Z 27009KT 240V310 9999 SCT033 BKN039 09/05 Q1021
  • 180920Z 27008KT 9999 SCT045 10/06 Q1021

TAF TAF EGCN
Valid from the 18 at 12:00 until the 19 at 12:00 UTC


181059Z 1812/1912 29008KT 9999 SCT025
PROB30 1902/1908 9000
No reported NOTAMs for that airfield.



MET'MAP, your aeronautical weather chart ! - Copyright ORBIFLY December 2007 - Disclaimer

ORBIFLY MET'MAP TEAM :

Programming & Development : Alexandra Zaïnal
Concept & Development : Baudouin d'Aumeries
Co-Development & Prog : Marc-Olivier Méhu
Technical & hardware support : Manuel Goepfert

Contact : metmap@orbifly.com




SOURCES & CREDITS :

   NOAA